sensor_id;sensor_type;location;lat;lon;timestamp;P1;durP1;ratioP1;P2;durP2;ratioP2
15490;SDS011;7847;50.930;4.336;2023-06-14T00:00:21;0.10;;;0.10;;
15490;SDS011;7847;50.930;4.336;2023-06-14T00:02:47;0.10;;;0.10;;
15490;SDS011;7847;50.930;4.336;2023-06-14T00:05:13;0.10;;;0.10;;
15490;SDS011;7847;50.930;4.336;2023-06-14T00:07:40;0.10;;;0.10;;
15490;SDS011;7847;50.930;4.336;2023-06-14T00:10:10;0.10;;;0.10;;
15490;SDS011;7847;50.930;4.336;2023-06-14T00:12:36;0.10;;;0.10;;
15490;SDS011;7847;50.930;4.336;2023-06-14T00:15:03;0.15;;;0.15;;
15490;SDS011;7847;50.930;4.336;2023-06-14T00:17:29;0.10;;;0.10;;
15490;SDS011;7847;50.930;4.336;2023-06-14T00:19:56;0.10;;;0.10;;
15490;SDS011;7847;50.930;4.336;2023-06-14T00:22:22;0.10;;;0.10;;
15490;SDS011;7847;50.930;4.336;2023-06-14T00:24:53;0.13;;;0.13;;
15490;SDS011;7847;50.930;4.336;2023-06-14T00:27:19;0.20;;;0.20;;
15490;SDS011;7847;50.930;4.336;2023-06-14T00:29:45;0.20;;;0.20;;
15490;SDS011;7847;50.930;4.336;2023-06-14T00:32:11;0.10;;;0.10;;
15490;SDS011;7847;50.930;4.336;2023-06-14T00:34:37;0.20;;;0.20;;
15490;SDS011;7847;50.930;4.336;2023-06-14T00:37:03;0.20;;;0.20;;
15490;SDS011;7847;50.930;4.336;2023-06-14T00:39:29;0.20;;;0.20;;
15490;SDS011;7847;50.930;4.336;2023-06-14T00:41:55;0.10;;;0.10;;
15490;SDS011;7847;50.930;4.336;2023-06-14T00:44:22;0.10;;;0.10;;
15490;SDS011;7847;50.930;4.336;2023-06-14T00:46:48;0.10;;;0.10;;
15490;SDS011;7847;50.930;4.336;2023-06-14T00:49:15;0.10;;;0.10;;
15490;SDS011;7847;50.930;4.336;2023-06-14T00:51:41;0.10;;;0.10;;
15490;SDS011;7847;50.930;4.336;2023-06-14T00:54:08;0.10;;;0.10;;
15490;SDS011;7847;50.930;4.336;2023-06-14T00:56:37;0.20;;;0.20;;
15490;SDS011;7847;50.930;4.336;2023-06-14T00:59:03;0.10;;;0.10;;
15490;SDS011;7847;50.930;4.336;2023-06-14T01:01:32;0.20;;;0.20;;
15490;SDS011;7847;50.930;4.336;2023-06-14T01:04:01;0.20;;;0.20;;
15490;SDS011;7847;50.930;4.336;2023-06-14T01:11:37;0.10;;;0.10;;
15490;SDS011;7847;50.930;4.336;2023-06-14T01:14:04;0.20;;;0.20;;
15490;SDS011;7847;50.930;4.336;2023-06-14T01:16:31;0.20;;;0.20;;
15490;SDS011;7847;50.930;4.336;2023-06-14T01:18:57;0.10;;;0.10;;
15490;SDS011;7847;50.930;4.336;2023-06-14T01:21:24;0.20;;;0.20;;
15490;SDS011;7847;50.930;4.336;2023-06-14T01:23:51;0.20;;;0.20;;
15490;SDS011;7847;50.930;4.336;2023-06-14T01:26:21;0.20;;;0.20;;
15490;SDS011;7847;50.930;4.336;2023-06-14T01:28:47;0.20;;;0.20;;
15490;SDS011;7847;50.930;4.336;2023-06-14T01:31:16;0.10;;;0.10;;
15490;SDS011;7847;50.930;4.336;2023-06-14T01:33:42;0.10;;;0.10;;
15490;SDS011;7847;50.930;4.336;2023-06-14T01:36:09;0.20;;;0.20;;
15490;SDS011;7847;50.930;4.336;2023-06-14T01:38:35;0.20;;;0.20;;
15490;SDS011;7847;50.930;4.336;2023-06-14T01:41:02;0.10;;;0.10;;
15490;SDS011;7847;50.930;4.336;2023-06-14T01:43:29;0.17;;;0.17;;
15490;SDS011;7847;50.930;4.336;2023-06-14T01:45:56;0.10;;;0.10;;
15490;SDS011;7847;50.930;4.336;2023-06-14T01:48:23;0.20;;;0.20;;
15490;SDS011;7847;50.930;4.336;2023-06-14T01:50:49;0.17;;;0.17;;
15490;SDS011;7847;50.930;4.336;2023-06-14T01:53:15;0.20;;;0.20;;
15490;SDS011;7847;50.930;4.336;2023-06-14T01:55:42;0.20;;;0.20;;
15490;SDS011;7847;50.930;4.336;2023-06-14T01:58:10;0.20;;;0.20;;
15490;SDS011;7847;50.930;4.336;2023-06-14T02:00:36;0.13;;;0.13;;
15490;SDS011;7847;50.930;4.336;2023-06-14T02:03:02;0.15;;;0.15;;
15490;SDS011;7847;50.930;4.336;2023-06-14T02:05:31;0.20;;;0.20;;
15490;SDS011;7847;50.930;4.336;2023-06-14T02:07:57;0.20;;;0.20;;
15490;SDS011;7847;50.930;4.336;2023-06-14T02:10:23;0.20;;;0.20;;
15490;SDS011;7847;50.930;4.336;2023-06-14T02:12:49;0.20;;;0.20;;
15490;SDS011;7847;50.930;4.336;2023-06-14T02:15:15;0.10;;;0.10;;
15490;SDS011;7847;50.930;4.336;2023-06-14T02:17:48;0.20;;;0.20;;
15490;SDS011;7847;50.930;4.336;2023-06-14T02:20:17;0.10;;;0.10;;
15490;SDS011;7847;50.930;4.336;2023-06-14T02:22:43;0.20;;;0.20;;
15490;SDS011;7847;50.930;4.336;2023-06-14T02:25:09;0.20;;;0.20;;
15490;SDS011;7847;50.930;4.336;2023-06-14T02:27:36;0.10;;;0.10;;
15490;SDS011;7847;50.930;4.336;2023-06-14T02:30:02;0.10;;;0.10;;
15490;SDS011;7847;50.930;4.336;2023-06-14T02:32:28;0.10;;;0.10;;
15490;SDS011;7847;50.930;4.336;2023-06-14T02:34:54;0.20;;;0.20;;
15490;SDS011;7847;50.930;4.336;2023-06-14T02:37:20;0.20;;;0.20;;
15490;SDS011;7847;50.930;4.336;2023-06-14T02:39:46;0.10;;;0.10;;
15490;SDS011;7847;50.930;4.336;2023-06-14T02:42:12;0.20;;;0.20;;
15490;SDS011;7847;50.930;4.336;2023-06-14T02:44:38;0.20;;;0.20;;
15490;SDS011;7847;50.930;4.336;2023-06-14T02:47:04;0.20;;;0.20;;
15490;SDS011;7847;50.930;4.336;2023-06-14T02:49:31;0.20;;;0.20;;
15490;SDS011;7847;50.930;4.336;2023-06-14T02:51:57;0.10;;;0.10;;
15490;SDS011;7847;50.930;4.336;2023-06-14T02:54:23;0.20;;;0.20;;
15490;SDS011;7847;50.930;4.336;2023-06-14T02:56:49;0.20;;;0.20;;
15490;SDS011;7847;50.930;4.336;2023-06-14T02:59:15;0.20;;;0.20;;
15490;SDS011;7847;50.930;4.336;2023-06-14T03:01:42;0.10;;;0.10;;
15490;SDS011;7847;50.930;4.336;2023-06-14T03:04:08;0.20;;;0.20;;
15490;SDS011;7847;50.930;4.336;2023-06-14T03:06:34;0.20;;;0.20;;
15490;SDS011;7847;50.930;4.336;2023-06-14T03:09:01;0.20;;;0.20;;
15490;SDS011;7847;50.930;4.336;2023-06-14T03:11:29;0.20;;;0.20;;
15490;SDS011;7847;50.930;4.336;2023-06-14T03:13:55;0.20;;;0.20;;
15490;SDS011;7847;50.930;4.336;2023-06-14T03:16:22;0.20;;;0.20;;
15490;SDS011;7847;50.930;4.336;2023-06-14T03:18:49;0.20;;;0.20;;
15490;SDS011;7847;50.930;4.336;2023-06-14T03:21:16;0.20;;;0.20;;
15490;SDS011;7847;50.930;4.336;2023-06-14T03:23:42;0.20;;;0.20;;
15490;SDS011;7847;50.930;4.336;2023-06-14T03:26:11;0.20;;;0.20;;
15490;SDS011;7847;50.930;4.336;2023-06-14T03:28:43;0.20;;;0.20;;
15490;SDS011;7847;50.930;4.336;2023-06-14T03:31:10;0.28;;;0.28;;
15490;SDS011;7847;50.930;4.336;2023-06-14T03:33:36;0.20;;;0.20;;
15490;SDS011;7847;50.930;4.336;2023-06-14T03:36:02;0.20;;;0.20;;
15490;SDS011;7847;50.930;4.336;2023-06-14T03:38:28;0.10;;;0.10;;
15490;SDS011;7847;50.930;4.336;2023-06-14T03:40:55;0.20;;;0.20;;
15490;SDS011;7847;50.930;4.336;2023-06-14T03:43:21;0.20;;;0.20;;
15490;SDS011;7847;50.930;4.336;2023-06-14T03:45:47;0.20;;;0.20;;
15490;SDS011;7847;50.930;4.336;2023-06-14T03:48:13;0.20;;;0.20;;
15490;SDS011;7847;50.930;4.336;2023-06-14T03:50:39;0.20;;;0.20;;
15490;SDS011;7847;50.930;4.336;2023-06-14T03:53:05;0.20;;;0.20;;
15490;SDS011;7847;50.930;4.336;2023-06-14T03:55:31;0.20;;;0.20;;
15490;SDS011;7847;50.930;4.336;2023-06-14T03:57:58;0.20;;;0.20;;
15490;SDS011;7847;50.930;4.336;2023-06-14T04:00:24;0.20;;;0.20;;
15490;SDS011;7847;50.930;4.336;2023-06-14T04:02:50;0.20;;;0.20;;
15490;SDS011;7847;50.930;4.336;2023-06-14T04:05:16;0.20;;;0.20;;
15490;SDS011;7847;50.930;4.336;2023-06-14T04:07:44;0.20;;;0.20;;
15490;SDS011;7847;50.930;4.336;2023-06-14T04:10:13;0.10;;;0.10;;
15490;SDS011;7847;50.930;4.336;2023-06-14T04:12:39;0.10;;;0.10;;
15490;SDS011;7847;50.930;4.336;2023-06-14T04:15:05;0.20;;;0.20;;
15490;SDS011;7847;50.930;4.336;2023-06-14T04:17:33;0.20;;;0.20;;
15490;SDS011;7847;50.930;4.336;2023-06-14T04:19:59;0.20;;;0.20;;
15490;SDS011;7847;50.930;4.336;2023-06-14T04:22:26;0.20;;;0.20;;
15490;SDS011;7847;50.930;4.336;2023-06-14T04:24:55;0.20;;;0.20;;
15490;SDS011;7847;50.930;4.336;2023-06-14T04:27:22;0.10;;;0.10;;
15490;SDS011;7847;50.930;4.336;2023-06-14T04:29:53;0.20;;;0.20;;
15490;SDS011;7847;50.930;4.336;2023-06-14T04:32:28;0.20;;;0.20;;
15490;SDS011;7847;50.930;4.336;2023-06-14T04:35:04;0.20;;;0.20;;
15490;SDS011;7847;50.930;4.336;2023-06-14T04:37:30;0.20;;;0.20;;
15490;SDS011;7847;50.930;4.336;2023-06-14T04:39:57;0.20;;;0.20;;
15490;SDS011;7847;50.930;4.336;2023-06-14T04:42:23;0.10;;;0.10;;
15490;SDS011;7847;50.930;4.336;2023-06-14T04:44:55;0.10;;;0.10;;
15490;SDS011;7847;50.930;4.336;2023-06-14T04:47:22;0.10;;;0.10;;
15490;SDS011;7847;50.930;4.336;2023-06-14T04:49:49;0.13;;;0.13;;
15490;SDS011;7847;50.930;4.336;2023-06-14T04:52:18;0.10;;;0.10;;
15490;SDS011;7847;50.930;4.336;2023-06-14T04:54:46;0.00;;;0.00;;
15490;SDS011;7847;50.930;4.336;2023-06-14T04:57:12;0.00;;;0.00;;
15490;SDS011;7847;50.930;4.336;2023-06-14T04:59:39;0.10;;;0.10;;
15490;SDS011;7847;50.930;4.336;2023-06-14T05:02:05;0.10;;;0.10;;
15490;SDS011;7847;50.930;4.336;2023-06-14T05:04:32;0.10;;;0.10;;
15490;SDS011;7847;50.930;4.336;2023-06-14T05:06:58;0.10;;;0.10;;
15490;SDS011;7847;50.930;4.336;2023-06-14T05:09:24;0.10;;;0.10;;
15490;SDS011;7847;50.930;4.336;2023-06-14T05:11:50;0.10;;;0.10;;
15490;SDS011;7847;50.930;4.336;2023-06-14T05:14:16;0.10;;;0.10;;
15490;SDS011;7847;50.930;4.336;2023-06-14T05:16:43;0.10;;;0.10;;
15490;SDS011;7847;50.930;4.336;2023-06-14T05:19:09;0.03;;;0.03;;
15490;SDS011;7847;50.930;4.336;2023-06-14T05:21:36;0.20;;;0.20;;
15490;SDS011;7847;50.930;4.336;2023-06-14T05:24:02;0.10;;;0.10;;
15490;SDS011;7847;50.930;4.336;2023-06-14T05:26:28;0.10;;;0.10;;
15490;SDS011;7847;50.930;4.336;2023-06-14T05:28:55;0.10;;;0.10;;
15490;SDS011;7847;50.930;4.336;2023-06-14T05:31:22;0.10;;;0.10;;
15490;SDS011;7847;50.930;4.336;2023-06-14T05:33:48;0.10;;;0.10;;
15490;SDS011;7847;50.930;4.336;2023-06-14T05:36:15;0.10;;;0.10;;
15490;SDS011;7847;50.930;4.336;2023-06-14T05:38:41;0.10;;;0.10;;
15490;SDS011;7847;50.930;4.336;2023-06-14T05:41:07;0.10;;;0.10;;
15490;SDS011;7847;50.930;4.336;2023-06-14T05:43:33;0.10;;;0.10;;
15490;SDS011;7847;50.930;4.336;2023-06-14T05:46:00;0.10;;;0.10;;
15490;SDS011;7847;50.930;4.336;2023-06-14T05:48:26;0.10;;;0.10;;
15490;SDS011;7847;50.930;4.336;2023-06-14T05:50:52;0.10;;;0.10;;
15490;SDS011;7847;50.930;4.336;2023-06-14T05:53:18;0.10;;;0.10;;
15490;SDS011;7847;50.930;4.336;2023-06-14T05:55:44;0.10;;;0.10;;
15490;SDS011;7847;50.930;4.336;2023-06-14T05:58:10;0.10;;;0.10;;
15490;SDS011;7847;50.930;4.336;2023-06-14T06:00:39;0.10;;;0.10;;
15490;SDS011;7847;50.930;4.336;2023-06-14T06:03:05;0.10;;;0.10;;
15490;SDS011;7847;50.930;4.336;2023-06-14T06:05:36;0.10;;;0.10;;
15490;SDS011;7847;50.930;4.336;2023-06-14T06:08:02;0.10;;;0.10;;
15490;SDS011;7847;50.930;4.336;2023-06-14T06:10:28;0.10;;;0.10;;
15490;SDS011;7847;50.930;4.336;2023-06-14T06:12:54;0.10;;;0.10;;
15490;SDS011;7847;50.930;4.336;2023-06-14T06:15:20;0.10;;;0.10;;
15490;SDS011;7847;50.930;4.336;2023-06-14T06:17:46;0.10;;;0.10;;
15490;SDS011;7847;50.930;4.336;2023-06-14T06:20:12;0.10;;;0.10;;
15490;SDS011;7847;50.930;4.336;2023-06-14T06:22:38;0.10;;;0.10;;
15490;SDS011;7847;50.930;4.336;2023-06-14T06:25:04;0.10;;;0.10;;
15490;SDS011;7847;50.930;4.336;2023-06-14T06:27:31;0.10;;;0.10;;
15490;SDS011;7847;50.930;4.336;2023-06-14T06:29:57;0.10;;;0.10;;
15490;SDS011;7847;50.930;4.336;2023-06-14T06:32:23;0.00;;;0.00;;
15490;SDS011;7847;50.930;4.336;2023-06-14T06:34:52;0.10;;;0.10;;
15490;SDS011;7847;50.930;4.336;2023-06-14T06:37:18;0.10;;;0.10;;
15490;SDS011;7847;50.930;4.336;2023-06-14T06:39:45;0.10;;;0.10;;
15490;SDS011;7847;50.930;4.336;2023-06-14T06:42:11;0.00;;;0.00;;
15490;SDS011;7847;50.930;4.336;2023-06-14T06:44:38;0.10;;;0.10;;
15490;SDS011;7847;50.930;4.336;2023-06-14T06:47:04;0.10;;;0.10;;
15490;SDS011;7847;50.930;4.336;2023-06-14T06:49:30;0.10;;;0.10;;
15490;SDS011;7847;50.930;4.336;2023-06-14T06:51:59;0.10;;;0.10;;
15490;SDS011;7847;50.930;4.336;2023-06-14T06:54:27;0.10;;;0.10;;
15490;SDS011;7847;50.930;4.336;2023-06-14T06:56:53;0.10;;;0.10;;
15490;SDS011;7847;50.930;4.336;2023-06-14T06:59:19;0.10;;;0.10;;
15490;SDS011;7847;50.930;4.336;2023-06-14T07:01:45;0.10;;;0.10;;
15490;SDS011;7847;50.930;4.336;2023-06-14T07:04:12;0.10;;;0.10;;
15490;SDS011;7847;50.930;4.336;2023-06-14T07:06:38;0.10;;;0.10;;
15490;SDS011;7847;50.930;4.336;2023-06-14T07:09:04;0.00;;;0.00;;
15490;SDS011;7847;50.930;4.336;2023-06-14T07:11:33;0.10;;;0.10;;
15490;SDS011;7847;50.930;4.336;2023-06-14T07:13:59;0.05;;;0.05;;
15490;SDS011;7847;50.930;4.336;2023-06-14T07:16:25;0.10;;;0.10;;
15490;SDS011;7847;50.930;4.336;2023-06-14T07:18:51;0.10;;;0.10;;
15490;SDS011;7847;50.930;4.336;2023-06-14T07:21:17;0.00;;;0.00;;
15490;SDS011;7847;50.930;4.336;2023-06-14T07:23:43;0.00;;;0.00;;
15490;SDS011;7847;50.930;4.336;2023-06-14T07:26:10;0.10;;;0.10;;
15490;SDS011;7847;50.930;4.336;2023-06-14T07:28:36;0.00;;;0.00;;
15490;SDS011;7847;50.930;4.336;2023-06-14T07:31:02;0.10;;;0.10;;
15490;SDS011;7847;50.930;4.336;2023-06-14T07:33:28;0.10;;;0.10;;
15490;SDS011;7847;50.930;4.336;2023-06-14T07:35:54;0.10;;;0.10;;
15490;SDS011;7847;50.930;4.336;2023-06-14T07:38:20;0.00;;;0.00;;
15490;SDS011;7847;50.930;4.336;2023-06-14T07:40:46;0.00;;;0.00;;
15490;SDS011;7847;50.930;4.336;2023-06-14T07:43:13;0.10;;;0.10;;
15490;SDS011;7847;50.930;4.336;2023-06-14T07:45:39;0.03;;;0.03;;
15490;SDS011;7847;50.930;4.336;2023-06-14T07:48:05;0.05;;;0.05;;
15490;SDS011;7847;50.930;4.336;2023-06-14T07:50:32;0.00;;;0.00;;
15490;SDS011;7847;50.930;4.336;2023-06-14T07:52:58;0.00;;;0.00;;
15490;SDS011;7847;50.930;4.336;2023-06-14T07:55:24;0.10;;;0.10;;
15490;SDS011;7847;50.930;4.336;2023-06-14T07:57:50;0.00;;;0.00;;
15490;SDS011;7847;50.930;4.336;2023-06-14T08:00:16;0.00;;;0.00;;
15490;SDS011;7847;50.930;4.336;2023-06-14T08:02:43;0.00;;;0.00;;
15490;SDS011;7847;50.930;4.336;2023-06-14T08:05:12;0.00;;;0.00;;
15490;SDS011;7847;50.930;4.336;2023-06-14T08:07:39;0.00;;;0.00;;
15490;SDS011;7847;50.930;4.336;2023-06-14T08:10:05;0.10;;;0.10;;
15490;SDS011;7847;50.930;4.336;2023-06-14T08:12:32;0.00;;;0.00;;
15490;SDS011;7847;50.930;4.336;2023-06-14T08:14:59;0.00;;;0.00;;
15490;SDS011;7847;50.930;4.336;2023-06-14T08:17:25;0.03;;;0.03;;
15490;SDS011;7847;50.930;4.336;2023-06-14T08:19:51;0.10;;;0.10;;
15490;SDS011;7847;50.930;4.336;2023-06-14T08:22:19;0.00;;;0.00;;
15490;SDS011;7847;50.930;4.336;2023-06-14T08:24:46;0.00;;;0.00;;
15490;SDS011;7847;50.930;4.336;2023-06-14T08:27:13;0.08;;;0.08;;
15490;SDS011;7847;50.930;4.336;2023-06-14T08:29:39;0.00;;;0.00;;
15490;SDS011;7847;50.930;4.336;2023-06-14T08:32:06;0.00;;;0.00;;
15490;SDS011;7847;50.930;4.336;2023-06-14T08:34:32;0.00;;;0.00;;
15490;SDS011;7847;50.930;4.336;2023-06-14T08:36:58;0.00;;;0.00;;
15490;SDS011;7847;50.930;4.336;2023-06-14T08:39:24;0.00;;;0.00;;
15490;SDS011;7847;50.930;4.336;2023-06-14T08:41:50;0.00;;;0.00;;
15490;SDS011;7847;50.930;4.336;2023-06-14T08:44:18;0.00;;;0.00;;
15490;SDS011;7847;50.930;4.336;2023-06-14T08:46:44;0.00;;;0.00;;
15490;SDS011;7847;50.930;4.336;2023-06-14T08:49:11;0.00;;;0.00;;
15490;SDS011;7847;50.930;4.336;2023-06-14T08:51:37;0.00;;;0.00;;
15490;SDS011;7847;50.930;4.336;2023-06-14T08:54:05;0.00;;;0.00;;
15490;SDS011;7847;50.930;4.336;2023-06-14T08:56:32;0.00;;;0.00;;
15490;SDS011;7847;50.930;4.336;2023-06-14T08:58:59;0.00;;;0.00;;
15490;SDS011;7847;50.930;4.336;2023-06-14T09:01:28;0.00;;;0.00;;
15490;SDS011;7847;50.930;4.336;2023-06-14T09:03:54;0.00;;;0.00;;
15490;SDS011;7847;50.930;4.336;2023-06-14T09:06:22;0.00;;;0.00;;
15490;SDS011;7847;50.930;4.336;2023-06-14T09:08:49;0.00;;;0.00;;
15490;SDS011;7847;50.930;4.336;2023-06-14T09:11:18;0.10;;;0.10;;
15490;SDS011;7847;50.930;4.336;2023-06-14T09:13:44;0.00;;;0.00;;
15490;SDS011;7847;50.930;4.336;2023-06-14T09:16:10;0.00;;;0.00;;
15490;SDS011;7847;50.930;4.336;2023-06-14T09:18:41;0.00;;;0.00;;
15490;SDS011;7847;50.930;4.336;2023-06-14T09:21:09;0.00;;;0.00;;
15490;SDS011;7847;50.930;4.336;2023-06-14T09:23:39;0.00;;;0.00;;
15490;SDS011;7847;50.930;4.336;2023-06-14T09:26:12;0.00;;;0.00;;
15490;SDS011;7847;50.930;4.336;2023-06-14T09:28:42;0.00;;;0.00;;
15490;SDS011;7847;50.930;4.336;2023-06-14T09:31:10;0.00;;;0.00;;
15490;SDS011;7847;50.930;4.336;2023-06-14T09:33:36;0.00;;;0.00;;
15490;SDS011;7847;50.930;4.336;2023-06-14T09:36:03;0.00;;;0.00;;
15490;SDS011;7847;50.930;4.336;2023-06-14T09:38:29;0.00;;;0.00;;
15490;SDS011;7847;50.930;4.336;2023-06-14T09:40:58;0.00;;;0.00;;
15490;SDS011;7847;50.930;4.336;2023-06-14T09:43:24;0.00;;;0.00;;
15490;SDS011;7847;50.930;4.336;2023-06-14T09:45:52;0.00;;;0.00;;
15490;SDS011;7847;50.930;4.336;2023-06-14T09:48:19;0.00;;;0.00;;
15490;SDS011;7847;50.930;4.336;2023-06-14T09:50:45;0.00;;;0.00;;
15490;SDS011;7847;50.930;4.336;2023-06-14T09:53:13;0.00;;;0.00;;
15490;SDS011;7847;50.930;4.336;2023-06-14T09:55:40;0.00;;;0.00;;
15490;SDS011;7847;50.930;4.336;2023-06-14T09:58:07;0.00;;;0.00;;
15490;SDS011;7847;50.930;4.336;2023-06-14T10:00:33;0.00;;;0.00;;
15490;SDS011;7847;50.930;4.336;2023-06-14T10:03:21;0.00;;;0.00;;
15490;SDS011;7847;50.930;4.336;2023-06-14T10:05:46;0.00;;;0.00;;
15490;SDS011;7847;50.930;4.336;2023-06-14T10:08:14;0.00;;;0.00;;
15490;SDS011;7847;50.930;4.336;2023-06-14T10:10:42;0.00;;;0.00;;
15490;SDS011;7847;50.930;4.336;2023-06-14T10:13:08;0.00;;;0.00;;
15490;SDS011;7847;50.930;4.336;2023-06-14T10:18:06;0.00;;;0.00;;
15490;SDS011;7847;50.930;4.336;2023-06-14T10:20:39;0.00;;;0.00;;
15490;SDS011;7847;50.930;4.336;2023-06-14T10:23:10;0.00;;;0.00;;
15490;SDS011;7847;50.930;4.336;2023-06-14T10:25:36;0.00;;;0.00;;
15490;SDS011;7847;50.930;4.336;2023-06-14T10:28:23;0.00;;;0.00;;
15490;SDS011;7847;50.930;4.336;2023-06-14T10:31:01;0.00;;;0.00;;
15490;SDS011;7847;50.930;4.336;2023-06-14T10:33:31;0.00;;;0.00;;
15490;SDS011;7847;50.930;4.336;2023-06-14T10:38:41;0.00;;;0.00;;
15490;SDS011;7847;50.930;4.336;2023-06-14T10:41:07;0.00;;;0.00;;
15490;SDS011;7847;50.930;4.336;2023-06-14T10:43:33;0.00;;;0.00;;
15490;SDS011;7847;50.930;4.336;2023-06-14T10:46:18;0.00;;;0.00;;
15490;SDS011;7847;50.930;4.336;2023-06-14T10:48:48;0.00;;;0.00;;
15490;SDS011;7847;50.930;4.336;2023-06-14T10:51:17;0.00;;;0.00;;
15490;SDS011;7847;50.930;4.336;2023-06-14T10:53:45;0.00;;;0.00;;
15490;SDS011;7847;50.930;4.336;2023-06-14T10:56:30;0.00;;;0.00;;
15490;SDS011;7847;50.930;4.336;2023-06-14T10:58:57;0.00;;;0.00;;
15490;SDS011;7847;50.930;4.336;2023-06-14T11:01:28;0.00;;;0.00;;
15490;SDS011;7847;50.930;4.336;2023-06-14T11:04:00;0.00;;;0.00;;
15490;SDS011;7847;50.930;4.336;2023-06-14T11:06:29;0.00;;;0.00;;
15490;SDS011;7847;50.930;4.336;2023-06-14T11:11:31;0.00;;;0.00;;
15490;SDS011;7847;50.930;4.336;2023-06-14T11:14:00;0.00;;;0.00;;
15490;SDS011;7847;50.930;4.336;2023-06-14T11:16:27;0.00;;;0.00;;
15490;SDS011;7847;50.930;4.336;2023-06-14T11:18:54;0.00;;;0.00;;
15490;SDS011;7847;50.930;4.336;2023-06-14T11:21:20;0.00;;;0.00;;
15490;SDS011;7847;50.930;4.336;2023-06-14T11:23:52;0.00;;;0.00;;
15490;SDS011;7847;50.930;4.336;2023-06-14T11:26:30;0.00;;;0.00;;
15490;SDS011;7847;50.930;4.336;2023-06-14T11:28:56;0.00;;;0.00;;
15490;SDS011;7847;50.930;4.336;2023-06-14T11:31:23;0.00;;;0.00;;
15490;SDS011;7847;50.930;4.336;2023-06-14T11:33:50;0.00;;;0.00;;
15490;SDS011;7847;50.930;4.336;2023-06-14T11:36:16;0.00;;;0.00;;
15490;SDS011;7847;50.930;4.336;2023-06-14T11:38:42;0.00;;;0.00;;
15490;SDS011;7847;50.930;4.336;2023-06-14T11:41:08;0.00;;;0.00;;
15490;SDS011;7847;50.930;4.336;2023-06-14T11:43:35;0.00;;;0.00;;
15490;SDS011;7847;50.930;4.336;2023-06-14T11:46:01;0.00;;;0.00;;
15490;SDS011;7847;50.930;4.336;2023-06-14T11:48:37;0.00;;;0.00;;
15490;SDS011;7847;50.930;4.336;2023-06-14T11:51:03;0.00;;;0.00;;
15490;SDS011;7847;50.930;4.336;2023-06-14T11:53:29;0.00;;;0.00;;
15490;SDS011;7847;50.930;4.336;2023-06-14T11:55:56;0.00;;;0.00;;
15490;SDS011;7847;50.930;4.336;2023-06-14T11:58:22;0.00;;;0.00;;
15490;SDS011;7847;50.930;4.336;2023-06-14T12:00:51;0.00;;;0.00;;
15490;SDS011;7847;50.930;4.336;2023-06-14T12:03:18;0.00;;;0.00;;
15490;SDS011;7847;50.930;4.336;2023-06-14T12:05:48;0.00;;;0.00;;
15490;SDS011;7847;50.930;4.336;2023-06-14T12:08:14;0.00;;;0.00;;
15490;SDS011;7847;50.930;4.336;2023-06-14T12:10:44;0.00;;;0.00;;
15490;SDS011;7847;50.930;4.336;2023-06-14T12:13:10;0.00;;;0.00;;
15490;SDS011;7847;50.930;4.336;2023-06-14T12:15:36;0.00;;;0.00;;
15490;SDS011;7847;50.930;4.336;2023-06-14T12:18:06;0.00;;;0.00;;
15490;SDS011;7847;50.930;4.336;2023-06-14T12:20:33;0.00;;;0.00;;
15490;SDS011;7847;50.930;4.336;2023-06-14T12:23:02;0.00;;;0.00;;
15490;SDS011;7847;50.930;4.336;2023-06-14T12:25:29;0.00;;;0.00;;
15490;SDS011;7847;50.930;4.336;2023-06-14T12:27:59;0.00;;;0.00;;
15490;SDS011;7847;50.930;4.336;2023-06-14T12:30:30;0.00;;;0.00;;
15490;SDS011;7847;50.930;4.336;2023-06-14T12:32:56;0.00;;;0.00;;
15490;SDS011;7847;50.930;4.336;2023-06-14T12:35:22;0.00;;;0.00;;
15490;SDS011;7847;50.930;4.336;2023-06-14T12:37:48;0.00;;;0.00;;
15490;SDS011;7847;50.930;4.336;2023-06-14T12:40:14;0.00;;;0.00;;
15490;SDS011;7847;50.930;4.336;2023-06-14T12:42:40;0.00;;;0.00;;
15490;SDS011;7847;50.930;4.336;2023-06-14T12:45:07;0.00;;;0.00;;
15490;SDS011;7847;50.930;4.336;2023-06-14T12:47:33;0.00;;;0.00;;
15490;SDS011;7847;50.930;4.336;2023-06-14T12:49:59;0.00;;;0.00;;
15490;SDS011;7847;50.930;4.336;2023-06-14T12:52:25;0.00;;;0.00;;
15490;SDS011;7847;50.930;4.336;2023-06-14T12:54:51;0.00;;;0.00;;
15490;SDS011;7847;50.930;4.336;2023-06-14T12:57:17;0.00;;;0.00;;
15490;SDS011;7847;50.930;4.336;2023-06-14T12:59:43;0.00;;;0.00;;
15490;SDS011;7847;50.930;4.336;2023-06-14T13:04:38;0.00;;;0.00;;
15490;SDS011;7847;50.930;4.336;2023-06-14T13:07:04;0.00;;;0.00;;
15490;SDS011;7847;50.930;4.336;2023-06-14T13:09:30;0.00;;;0.00;;
15490;SDS011;7847;50.930;4.336;2023-06-14T13:11:56;0.00;;;0.00;;
15490;SDS011;7847;50.930;4.336;2023-06-14T13:14:22;0.00;;;0.00;;
15490;SDS011;7847;50.930;4.336;2023-06-14T13:16:48;0.00;;;0.00;;
15490;SDS011;7847;50.930;4.336;2023-06-14T13:19:14;0.00;;;0.00;;
15490;SDS011;7847;50.930;4.336;2023-06-14T13:21:40;0.00;;;0.00;;
15490;SDS011;7847;50.930;4.336;2023-06-14T13:24:06;0.00;;;0.00;;
15490;SDS011;7847;50.930;4.336;2023-06-14T13:26:33;0.00;;;0.00;;
15490;SDS011;7847;50.930;4.336;2023-06-14T13:28:59;0.00;;;0.00;;
15490;SDS011;7847;50.930;4.336;2023-06-14T13:31:25;0.00;;;0.00;;
15490;SDS011;7847;50.930;4.336;2023-06-14T13:33:51;0.00;;;0.00;;
15490;SDS011;7847;50.930;4.336;2023-06-14T13:36:17;0.00;;;0.00;;
15490;SDS011;7847;50.930;4.336;2023-06-14T13:38:43;0.00;;;0.00;;
15490;SDS011;7847;50.930;4.336;2023-06-14T13:41:09;0.00;;;0.00;;
15490;SDS011;7847;50.930;4.336;2023-06-14T13:43:35;0.00;;;0.00;;
15490;SDS011;7847;50.930;4.336;2023-06-14T13:46:01;0.00;;;0.00;;
15490;SDS011;7847;50.930;4.336;2023-06-14T13:48:27;0.00;;;0.00;;
15490;SDS011;7847;50.930;4.336;2023-06-14T13:50:53;0.00;;;0.00;;
15490;SDS011;7847;50.930;4.336;2023-06-14T13:53:19;0.00;;;0.00;;
15490;SDS011;7847;50.930;4.336;2023-06-14T13:55:45;0.00;;;0.00;;
15490;SDS011;7847;50.930;4.336;2023-06-14T13:58:11;0.00;;;0.00;;
15490;SDS011;7847;50.930;4.336;2023-06-14T14:00:39;0.00;;;0.00;;
15490;SDS011;7847;50.930;4.336;2023-06-14T14:03:05;0.00;;;0.00;;
15490;SDS011;7847;50.930;4.336;2023-06-14T14:05:32;0.00;;;0.00;;
15490;SDS011;7847;50.930;4.336;2023-06-14T14:07:58;0.00;;;0.00;;
15490;SDS011;7847;50.930;4.336;2023-06-14T14:10:24;0.00;;;0.00;;
15490;SDS011;7847;50.930;4.336;2023-06-14T14:12:50;0.00;;;0.00;;
15490;SDS011;7847;50.930;4.336;2023-06-14T14:15:18;0.00;;;0.00;;
15490;SDS011;7847;50.930;4.336;2023-06-14T14:17:44;0.00;;;0.00;;
15490;SDS011;7847;50.930;4.336;2023-06-14T14:20:10;0.47;;;0.00;;
15490;SDS011;7847;50.930;4.336;2023-06-14T14:22:43;0.00;;;0.00;;
15490;SDS011;7847;50.930;4.336;2023-06-14T14:25:09;0.00;;;0.00;;
15490;SDS011;7847;50.930;4.336;2023-06-14T14:27:36;0.00;;;0.00;;
15490;SDS011;7847;50.930;4.336;2023-06-14T14:30:03;0.00;;;0.00;;
15490;SDS011;7847;50.930;4.336;2023-06-14T14:32:29;0.00;;;0.00;;
15490;SDS011;7847;50.930;4.336;2023-06-14T14:34:55;0.00;;;0.00;;
15490;SDS011;7847;50.930;4.336;2023-06-14T14:37:21;0.00;;;0.00;;
15490;SDS011;7847;50.930;4.336;2023-06-14T14:39:47;0.00;;;0.00;;
15490;SDS011;7847;50.930;4.336;2023-06-14T14:42:13;0.00;;;0.00;;
15490;SDS011;7847;50.930;4.336;2023-06-14T14:44:39;0.00;;;0.00;;
15490;SDS011;7847;50.930;4.336;2023-06-14T14:47:05;0.00;;;0.00;;
15490;SDS011;7847;50.930;4.336;2023-06-14T14:49:31;0.00;;;0.00;;
15490;SDS011;7847;50.930;4.336;2023-06-14T14:51:58;0.00;;;0.00;;
15490;SDS011;7847;50.930;4.336;2023-06-14T14:54:24;0.00;;;0.00;;
15490;SDS011;7847;50.930;4.336;2023-06-14T14:56:50;0.00;;;0.00;;
15490;SDS011;7847;50.930;4.336;2023-06-14T14:59:16;0.00;;;0.00;;
15490;SDS011;7847;50.930;4.336;2023-06-14T15:01:43;0.00;;;0.00;;
15490;SDS011;7847;50.930;4.336;2023-06-14T15:04:10;0.00;;;0.00;;
15490;SDS011;7847;50.930;4.336;2023-06-14T15:06:37;0.00;;;0.00;;
15490;SDS011;7847;50.930;4.336;2023-06-14T15:09:05;0.00;;;0.00;;
15490;SDS011;7847;50.930;4.336;2023-06-14T15:11:31;0.00;;;0.00;;
15490;SDS011;7847;50.930;4.336;2023-06-14T15:13:57;0.00;;;0.00;;